Time;durP1;ratioP1;P1;durP2;ratioP2;P2;SDS_P1;SDS_P2;PMS_P1;PMS_P2;Temp;Humidity;BMP_temperature;BMP_pressure;BME280_temperature;BME280_humidity;BME280_pressure;Samples;Min_cycle;Max_cycle;Signal;HPM_P1;HPM_P2
2023/02/20 00:01:35;;;;;;;;;54.75;43.00;;;;;9.88;59.06;101198.12;146608;596;46020;-72
2023/02/20 00:04:47;;;;;;;;;53.50;42.25;;;;;9.90;59.38;101199.97;146607;749;46016;-72
2023/02/20 00:07:44;;;;;;;;;41.25;34.50;;;;;9.91;58.69;101204.38;146609;590;46010;-71
2023/02/20 00:10:57;;;;;;;;;42.25;31.75;;;;;9.89;57.52;101198.22;146601;624;46016;-72
2023/02/20 00:14:18;;;;;;;;;;;;;;;;;;;;;
2023/02/20 00:17:13;;;;;;;;;46.25;37.00;;;;;9.90;57.77;101219.81;146605;603;46018;-71
2023/02/20 00:20:16;;;;;;;;;37.25;29.75;;;;;9.96;57.61;101220.19;146610;579;46020;-78
2023/02/20 00:23:29;;;;;;;;;27.25;25.25;;;;;9.99;57.84;101229.84;146608;638;46012;-81
2023/02/20 00:26:55;;;;;;;;;25.75;25.00;;;;;9.99;57.28;101241.09;146607;585;46020;-77
2023/02/20 00:30:08;;;;;;;;;29.50;26.75;;;;;9.99;58.16;101233.34;146605;574;46012;-76
2023/02/20 00:33:36;;;;;;;;;;;;;;;;;;;;;
2023/02/20 00:36:47;;;;;;;;;26.50;23.00;;;;;10.00;57.01;101240.34;146607;581;46013;-75
2023/02/20 00:40:00;;;;;;;;;18.00;16.00;;;;;9.93;57.79;101239.03;146602;809;46915;-74
2023/02/20 00:43:01;;;;;;;;;22.50;18.75;;;;;9.82;57.29;101239.19;146606;576;46016;-75
2023/02/20 00:45:59;;;;;;;;;21.25;18.75;;;;;9.76;57.67;101239.69;146610;563;46012;-76
2023/02/20 00:49:19;;;;;;;;;22.75;19.00;;;;;9.71;57.51;101243.69;146607;575;46016;-75
2023/02/20 00:52:11;;;;;;;;;19.50;17.25;;;;;9.69;57.72;101250.47;146609;575;46020;-74
2023/02/20 00:55:13;;;;;;;;;18.50;16.00;;;;;9.73;57.41;101249.88;146604;608;46016;-74
2023/02/20 00:58:29;;;;;;;;;15.75;13.50;;;;;9.76;57.03;101250.06;146609;676;46021;-74
2023/02/20 01:01:28;;;;;;;;;14.75;13.25;;;;;9.92;56.95;101254.50;146608;569;45016;-74
2023/02/20 01:04:35;;;;;;;;;13.25;12.50;;;;;10.12;56.05;101255.72;146605;573;46021;-75
2023/02/20 01:08:00;;;;;;;;;12.50;10.75;;;;;8.54;54.36;100935.41;146612;571;46014;-73
2023/02/20 01:11:03;;;;;;;;;12.50;11.25;;;;;10.60;53.76;101251.75;146609;630;46010;-73
2023/02/20 01:14:03;;;;;;;;;14.25;13.00;;;;;10.77;54.00;101256.22;146605;623;46017;-73
2023/02/20 01:17:11;;;;;;;;;15.00;13.75;;;;;10.91;53.17;101248.38;146609;595;46020;-73
2023/02/20 01:20:14;;;;;;;;;16.25;14.00;;;;;11.02;53.52;101255.94;146608;606;46016;-77
2023/02/20 01:23:23;;;;;;;;;17.25;16.25;;;;;11.06;53.49;101255.34;146609;608;46020;-79
2023/02/20 01:26:36;;;;;;;;;20.00;17.75;;;;;11.06;53.04;101260.53;146605;575;46016;-80
2023/02/20 01:29:37;;;;;;;;;13.75;11.75;;;;;11.02;52.87;101261.13;146608;602;46021;-79
2023/02/20 01:32:38;;;;;;;;;11.50;9.50;;;;;11.03;52.13;101273.31;146609;610;46016;-79
2023/02/20 01:35:37;;;;;;;;;10.25;9.25;;;;;11.12;52.28;101278.16;146613;565;46012;-80
2023/02/20 01:38:50;;;;;;;;;10.00;9.25;;;;;11.21;52.70;101275.19;146611;614;46012;-81
2023/02/20 01:42:12;;;;;;;;;11.50;9.50;;;;;9.62;51.32;100981.59;146611;557;46029;-81
2023/02/20 01:45:51;;;;;;;;;10.50;9.00;;;;;9.77;52.04;100987.69;146606;695;47012;-80
2023/02/20 01:48:58;;;;;;;;;15.00;13.25;;;;;11.53;51.36;101283.09;146608;571;46010;-81
2023/02/20 01:52:45;;;;;;;;;;;;;;;;;;;;;
2023/02/20 01:56:24;;;;;;;;;8.25;8.00;;;;;10.09;51.32;101014.56;146612;565;46010;-82
2023/02/20 01:59:26;;;;;;;;;11.25;10.75;;;;;11.66;51.76;101287.28;146609;581;46016;-86
2023/02/20 02:02:48;;;;;;;;;10.75;10.25;;;;;11.67;51.83;101282.97;146607;612;46027;-84
2023/02/20 02:06:24;;;;;;;;;12.50;10.75;;;;;10.01;50.95;100995.09;146608;567;46014;-77
2023/02/20 02:10:11;;;;;;;;;12.50;10.75;;;;;10.01;51.59;100993.41;146607;608;45020;-77
2023/02/20 02:13:10;;;;;;;;;14.25;12.00;;;;;11.66;51.46;101268.22;146606;649;46016;-83
2023/02/20 02:17:29;;;;;;;;;12.50;11.25;;;;;10.22;51.07;101010.97;146606;616;46020;-84
2023/02/20 02:21:07;;;;;;;;;12.75;12.50;;;;;11.66;51.62;101273.41;146607;615;46014;-79
2023/02/20 02:24:45;;;;;;;;;;;;;;;;;;;;;
2023/02/20 02:28:14;;;;;;;;;14.25;13.25;;;;;11.74;50.70;101285.09;146609;584;46012;-81
2023/02/20 02:32:02;;;;;;;;;14.50;12.00;;;;;10.13;50.71;100980.25;146606;645;46020;-78
2023/02/20 02:35:38;;;;;;;;;17.50;15.00;;;;;10.14;50.46;100964.78;146600;569;48916;-81
2023/02/20 02:39:12;;;;;;;;;24.50;15.75;;;;;10.46;50.75;101014.97;146608;569;46010;-78
2023/02/20 02:42:51;;;;;;;;;18.25;15.00;;;;;10.16;49.96;100952.81;146609;586;45017;-81
2023/02/20 02:46:38;;;;;;;;;15.25;13.00;;;;;10.84;50.00;101112.19;146610;600;46010;-81
2023/02/20 02:50:23;;;;;;;;;15.25;12.50;;;;;10.16;50.31;100962.31;146609;663;45017;-83
2023/02/20 02:53:36;;;;;;;;;13.25;11.00;;;;;10.43;50.26;101016.50;146612;576;46010;-82
2023/02/20 02:57:51;;;;;;;;;13.25;11.75;;;;;10.26;49.92;100982.78;146609;700;46012;-84
2023/02/20 03:01:06;;;;;;;;;15.75;12.50;;;;;12.04;49.92;101288.53;146612;611;46010;-79
2023/02/20 03:04:22;;;;;;;;;14.00;12.25;;;;;12.06;50.40;101306.81;146608;572;46017;-81
2023/02/20 03:07:47;;;;;;;;;13.25;12.75;;;;;12.12;49.98;101309.72;146608;606;46020;-79
2023/02/20 03:10:56;;;;;;;;;16.00;12.00;;;;;11.40;49.96;101174.19;146606;571;46016;-74
2023/02/20 03:17:59;;;;;;;;;14.75;13.75;;;;;12.32;49.31;101318.59;146609;595;46013;-73
2023/02/20 03:21:48;;;;;;;;;15.00;11.25;;;;;11.37;48.59;101134.12;146608;609;46020;-75
2023/02/20 03:25:00;;;;;;;;;17.50;13.75;;;;;12.45;48.83;101316.72;146607;606;46015;-75
2023/02/20 03:28:47;;;;;;;;;11.50;11.00;;;;;10.77;48.85;101027.06;146609;593;46020;-73
2023/02/20 03:46:10;;;;;;;;;16.50;13.75;;;;;12.27;49.81;101349.53;146607;594;45016;-75
2023/02/20 03:49:39;;;;;;;;;15.25;13.50;;;;;12.21;49.67;101349.22;146609;645;46010;-75
2023/02/20 03:52:49;;;;;;;;;20.25;19.25;;;;;12.16;50.00;101354.19;146609;584;45016;-80
2023/02/20 03:55:45;;;;;;;;;17.25;16.00;;;;;12.15;50.33;101369.69;146609;570;46021;-79
2023/02/20 03:58:48;;;;;;;;;20.25;19.25;;;;;12.14;50.03;101362.69;146604;635;46016;-78
2023/02/20 04:01:42;;;;;;;;;15.00;14.00;;;;;12.10;50.02;101360.75;146610;672;46010;-83
2023/02/20 04:05:04;;;;;;;;;15.00;12.50;;;;;12.10;50.07;101376.34;146608;592;46017;-79
2023/02/20 04:08:36;;;;;;;;;15.50;13.75;;;;;12.10;50.13;101378.94;146608;577;46020;-81
2023/02/20 04:12:04;;;;;;;;;15.00;11.25;;;;;12.10;49.89;101376.34;146607;639;46012;-79
2023/02/20 04:15:21;;;;;;;;;13.25;12.00;;;;;12.07;49.83;101374.47;146610;569;46012;-83
2023/02/20 04:18:38;;;;;;;;;12.25;11.25;;;;;12.07;50.12;101394.38;146608;585;46017;-84
2023/02/20 04:21:52;;;;;;;;;16.00;14.25;;;;;12.05;50.09;101391.66;146608;575;46012;-83
2023/02/20 04:25:08;;;;;;;;;;;;;;;;;;;;;
2023/02/20 04:28:12;;;;;;;;;15.75;13.50;;;;;12.05;49.86;101412.47;146610;582;46012;-76
2023/02/20 04:31:10;;;;;;;;;13.50;12.25;;;;;12.07;50.33;101420.37;146606;690;46014;-75
2023/02/20 04:34:25;;;;;;;;;13.00;12.50;;;;;12.04;50.54;101426.28;146607;670;46010;-76
2023/02/20 04:37:22;;;;;;;;;13.25;12.25;;;;;12.00;50.56;101429.53;146607;650;46016;-78
2023/02/20 04:40:31;;;;;;;;;13.00;12.00;;;;;10.20;50.18;101126.62;146606;565;46020;-78
2023/02/20 04:43:48;;;;;;;;;16.25;11.75;;;;;11.92;50.50;101442.06;146607;593;46012;-78
2023/02/20 04:47:00;;;;;;;;;15.75;13.00;;;;;10.16;51.25;101131.63;146611;594;45020;-76
2023/02/20 04:49:56;;;;;;;;;12.75;11.75;;;;;11.88;50.62;101439.22;146605;564;46915;-76
2023/02/20 04:53:12;;;;;;;;;12.25;10.50;;;;;11.86;50.98;101446.91;146609;593;46010;-76
2023/02/20 04:56:17;;;;;;;;;13.75;12.00;;;;;11.83;51.28;101457.09;146607;648;46012;-77
2023/02/20 04:59:18;;;;;;;;;11.75;11.50;;;;;11.81;50.99;101463.94;146607;563;46020;-76
2023/02/20 05:02:30;;;;;;;;;14.25;12.75;;;;;11.82;51.27;101465.72;146608;613;46015;-78
2023/02/20 05:05:45;;;;;;;;;13.50;12.00;;;;;10.33;51.05;101205.22;146606;559;47010;-76
2023/02/20 05:08:45;;;;;;;;;14.25;11.00;;;;;11.79;51.27;101470.72;146608;604;46012;-76
2023/02/20 05:11:50;;;;;;;;;14.50;13.50;;;;;11.73;51.50;101473.84;146609;662;46010;-74
2023/02/20 05:14:53;;;;;;;;;12.00;11.75;;;;;11.69;52.08;101476.19;146607;607;46012;-73
2023/02/20 05:17:45;;;;;;;;;14.75;13.00;;;;;11.64;52.08;101475.91;146608;675;46011;-76
2023/02/20 05:24:24;;;;;;;;;13.50;13.50;;;;;11.60;52.18;101496.44;146609;583;46020;-75
2023/02/20 05:27:28;;;;;;;;;16.00;12.75;;;;;11.64;52.65;101490.63;146606;566;46914;-75
2023/02/20 05:30:30;;;;;;;;;13.00;13.00;;;;;11.61;52.24;101514.69;146608;564;46020;-76
2023/02/20 05:33:42;;;;;;;;;16.25;13.50;;;;;11.58;52.23;101506.72;146605;592;46917;-76
2023/02/20 05:36:50;;;;;;;;;17.25;15.25;;;;;11.59;52.46;101515.41;146608;634;46020;-77
2023/02/20 05:40:02;;;;;;;;;17.50;13.50;;;;;11.59;52.12;101521.53;146601;572;46016;-77
2023/02/20 05:42:54;;;;;;;;;19.75;16.25;;;;;11.63;51.97;101531.28;146705;586;45022;-73
2023/02/20 05:46:06;;;;;;;;;17.50;16.25;;;;;11.66;51.69;101528.87;146621;603;46016;-75
2023/02/20 05:49:34;;;;;;;;;18.75;17.75;;;;;11.71;52.13;101535.25;146615;569;46012;-76
2023/02/20 05:52:35;;;;;;;;;18.75;15.75;;;;;11.82;51.79;101533.28;146617;575;46017;-76
2023/02/20 05:55:51;;;;;;;;;19.25;16.25;;;;;12.26;50.72;101532.37;146619;595;46020;-78
2023/02/20 05:58:57;;;;;;;;;26.75;21.75;;;;;12.99;49.68;101527.81;146617;581;46014;-75
2023/02/20 06:01:51;;;;;;;;;21.75;19.00;;;;;13.68;47.71;101539.28;146621;570;46020;-75
2023/02/20 06:05:04;;;;;;;;;19.25;18.00;;;;;14.44;47.06;101542.22;146620;603;46015;-73
2023/02/20 06:08:19;;;;;;;;;22.00;17.50;;;;;15.23;46.44;101560.78;146618;637;46020;-75
2023/02/20 06:11:20;;;;;;;;;21.50;19.00;;;;;15.90;43.58;101525.41;146618;625;46012;-74
2023/02/20 06:14:40;;;;;;;;;16.25;16.00;;;;;14.86;42.75;101331.03;146624;615;46011;-75
2023/02/20 06:17:42;;;;;;;;;26.25;24.25;;;;;16.27;42.42;101550.47;146616;583;46914;-74
2023/02/20 06:20:39;;;;;;;;;19.75;18.00;;;;;16.26;42.48;101577.47;146614;578;46020;-73
2023/02/20 06:24:07;;;;;;;;;22.50;21.00;;;;;16.38;42.16;101560.53;146615;629;47012;-74
2023/02/20 06:27:13;;;;;;;;;19.50;17.00;;;;;16.47;41.69;101544.31;146620;629;46020;-74
2023/02/20 06:30:16;;;;;;;;;21.50;16.75;;;;;16.72;40.48;101561.91;146615;663;46014;-74
2023/02/20 06:33:25;;;;;;;;;30.50;26.50;;;;;16.73;41.28;101571.56;146618;569;46020;-74
2023/02/20 06:36:32;;;;;;;;;16.75;15.75;;;;;16.76;40.94;101579.56;146620;596;46012;-74
2023/02/20 06:39:38;;;;;;;;;18.00;16.00;;;;;16.85;41.15;101571.16;146619;588;46020;-75
2023/02/20 06:42:45;;;;;;;;;;;;;;;;;;;;;
2023/02/20 06:45:39;;;;;;;;;19.25;18.75;;;;;16.74;41.12;101572.44;146623;616;46020;-76
2023/02/20 06:48:32;;;;;;;;;21.50;16.75;;;;;16.58;41.20;101573.56;146618;577;45016;-74
2023/02/20 06:51:29;;;;;;;;;13.25;13.25;;;;;16.38;42.33;101597.19;146622;576;46021;-74
2023/02/20 06:54:21;;;;;;;;;20.25;18.00;;;;;16.40;42.64;101607.72;146619;600;46014;-78
2023/02/20 06:57:15;;;;;;;;;17.75;17.75;;;;;16.49;41.87;101600.25;146624;566;45021;-77
2023/02/20 07:00:09;;;;;;;;;16.75;16.75;;;;;16.60;41.42;101587.59;146621;606;46012;-76
2023/02/20 07:03:01;;;;;;;;;15.25;14.75;;;;;16.67;40.90;101596.63;146621;635;46020;-75
2023/02/20 07:05:54;;;;;;;;;16.00;14.50;;;;;16.70;42.00;101605.47;146618;649;46017;-76
2023/02/20 07:08:49;;;;;;;;;23.00;20.50;;;;;16.81;41.04;101591.09;146620;609;46020;-76
2023/02/20 07:11:49;;;;;;;;;16.50;15.75;;;;;16.87;41.26;101600.94;146617;716;45916;-81
2023/02/20 07:14:41;;;;;;;;;16.25;13.25;;;;;16.88;40.13;101600.09;146624;600;46012;-78
2023/02/20 07:17:41;;;;;;;;;14.25;13.50;;;;;16.93;40.44;101601.19;146619;591;46016;-81
2023/02/20 07:20:47;;;;;;;;;14.00;12.25;;;;;16.99;39.91;101609.28;146625;610;46010;-82
2023/02/20 07:23:58;;;;;;;;;18.25;14.50;;;;;15.90;41.32;101408.59;146619;625;46016;-78
2023/02/20 07:26:56;;;;;;;;;12.00;12.00;;;;;17.03;40.07;101591.94;146624;578;46012;-80
2023/02/20 07:29:54;;;;;;;;;14.25;11.00;;;;;17.12;39.67;101613.25;146615;680;46016;-80
2023/02/20 07:32:46;;;;;;;;;9.50;9.25;;;;;17.25;38.85;101620.75;146624;563;46010;-70
2023/02/20 07:36:04;;;;;;;;;10.00;10.00;;;;;16.52;39.84;101458.13;146621;678;46013;-70
2023/02/20 07:39:10;;;;;;;;;10.00;10.00;;;;;17.53;39.11;101598.19;146621;704;46020;-73
2023/02/20 07:42:17;;;;;;;;;12.00;9.00;;;;;17.28;38.99;101530.88;146616;685;46017;-71
2023/02/20 07:45:25;;;;;;;;;12.00;11.00;;;;;17.86;38.98;101600.31;146624;580;46018;-72
2023/02/20 07:48:22;;;;;;;;;10.25;8.50;;;;;18.00;38.02;101593.78;146618;647;46016;-72
2023/02/20 07:51:32;;;;;;;;;8.50;7.75;;;;;18.11;38.97;101599.44;146622;584;46020;-72
2023/02/20 07:54:44;;;;;;;;;14.75;12.75;;;;;18.22;37.92;101603.28;146620;590;46012;-72
2023/02/20 07:57:43;;;;;;;;;11.00;11.00;;;;;18.33;37.78;101601.06;146625;571;46011;-72
2023/02/20 08:00:39;;;;;;;;;12.00;11.00;;;;;18.40;36.45;101618.78;146621;676;45033;-73
2023/02/20 08:03:48;;;;;;;;;13.25;10.00;;;;;18.47;36.84;101610.25;146621;722;46020;-73
2023/02/20 08:07:05;;;;;;;;;12.00;10.25;;;;;18.50;36.73;101606.84;146617;702;46016;-73
2023/02/20 08:10:28;;;;;;;;;12.00;9.75;;;;;18.55;38.50;101618.41;146622;572;46020;-72
2023/02/20 08:14:00;;;;;;;;;11.25;11.25;;;;;18.66;39.27;101617.94;146620;618;46016;-72
2023/02/20 08:16:56;;;;;;;;;12.50;12.25;;;;;18.78;39.17;101601.66;146623;676;46020;-73
2023/02/20 08:20:00;;;;;;;;;11.50;9.75;;;;;18.84;37.20;101607.13;146619;569;46016;-72
2023/02/20 08:22:59;;;;;;;;;10.50;9.00;;;;;18.79;36.24;101634.13;146626;585;46012;-72
2023/02/20 08:25:55;;;;;;;;;11.00;9.00;;;;;18.69;36.61;101622.34;146616;670;48016;-73
2023/02/20 08:29:05;;;;;;;;;12.00;9.00;;;;;18.62;36.39;101618.66;146622;659;46021;-74
2023/02/20 08:32:12;;;;;;;;;12.25;11.75;;;;;18.55;35.89;101621.03;146620;649;46040;-72
2023/02/20 08:35:12;;;;;;;;;10.50;8.50;;;;;18.50;37.43;101634.00;146623;571;46021;-72
2023/02/20 08:38:42;;;;;;;;;8.00;5.00;;;;;17.77;37.99;101502.06;146618;571;46016;-73
2023/02/20 08:42:09;;;;;;;;;8.67;7.00;;;;;17.94;36.31;101520.09;146626;588;46013;-79
2023/02/20 08:45:09;;;;;;;;;7.00;7.00;;;;;18.82;35.98;101631.59;146619;675;46018;-73
2023/02/20 08:48:06;;;;;;;;;2.75;2.00;;;;;18.97;36.73;101649.56;146623;705;46006;-71
2023/02/20 08:51:16;;;;;;;;;3.00;3.00;;;;;19.20;36.88;101647.66;146621;560;46016;-70
2023/02/20 08:54:10;;;;;;;;;5.00;4.50;;;;;19.45;33.97;101629.16;146625;609;46010;-71
2023/02/20 08:57:09;;;;;;;;;3.00;3.00;;;;;19.62;33.03;101634.88;146619;594;46016;-71
2023/02/20 09:00:23;;;;;;;;;5.00;4.00;;;;;19.70;35.26;101636.03;146622;584;46020;-71
2023/02/20 09:03:33;;;;;;;;;;;;;;;;;;;;;
2023/02/20 09:06:32;;;;;;;;;3.00;3.00;;;;;19.91;32.58;101629.59;146623;626;46010;-71
2023/02/20 09:09:25;;;;;;;;;7.33;5.33;;;;;20.02;33.26;101621.13;146621;570;46012;-70
2023/02/20 09:12:27;;;;;;;;;6.00;6.00;;;;;20.15;35.04;101624.09;146626;609;46021;-71
2023/02/20 09:15:27;;;;;;;;;5.00;5.00;;;;;20.24;32.71;101624.31;146621;592;45016;-71
2023/02/20 09:18:34;;;;;;;;;4.33;3.00;;;;;20.34;33.57;101625.44;146627;626;46021;-73
2023/02/20 09:21:38;;;;;;;;;6.00;5.00;;;;;20.36;34.09;101619.38;146620;620;46012;-72
2023/02/20 09:24:50;;;;;;;;;5.00;5.00;;;;;20.36;31.70;101629.03;146627;578;46010;-71
2023/02/20 09:27:45;;;;;;;;;6.00;6.00;;;;;20.38;32.25;101614.16;146621;636;46012;-71
2023/02/20 09:30:44;;;;;;;;;8.00;4.00;;;;;20.42;32.63;101634.44;146624;588;46020;-72
2023/02/20 09:33:59;;;;;;;;;6.50;5.50;;;;;19.61;35.23;101475.25;146620;654;46012;-72
2023/02/20 09:36:59;;;;;;;;;5.00;4.00;;;;;20.36;31.52;101623.75;146621;636;46010;-73
2023/02/20 09:40:20;;;;;;;;;5.75;4.75;;;;;20.34;34.92;101609.66;146618;610;46016;-74
2023/02/20 09:44:08;;;;;;;;;4.00;3.67;;;;;18.99;33.13;101391.19;146625;566;46021;-73
2023/02/20 09:47:41;;;;;;;;;5.33;3.00;;;;;20.19;34.08;101604.91;146619;603;46028;-75
2023/02/20 09:51:33;;;;;;;;;3.00;3.00;;;;;19.51;36.45;101489.91;146621;603;46020;-73
2023/02/20 09:54:42;;;;;;;;;5.00;3.67;;;;;20.23;33.91;101596.22;146622;564;46012;-73
2023/02/20 09:57:55;;;;;;;;;4.00;3.00;;;;;20.20;30.55;101591.75;146622;583;45021;-72
2023/02/20 10:00:56;;;;;;;;;5.33;3.00;;;;;20.19;30.07;101581.19;146620;621;46016;-74
2023/02/20 10:04:10;;;;;;;;;2.33;2.33;;;;;20.24;29.94;101579.56;146619;583;46031;-74
2023/02/20 10:07:36;;;;;;;;;6.50;4.00;;;;;20.28;31.55;101589.34;146620;676;46913;-72
2023/02/20 10:11:13;;;;;;;;;2.67;2.00;;;;;20.17;31.62;101532.88;146621;567;46020;-74
2023/02/20 10:15:05;;;;;;;;;3.00;3.00;;;;;19.88;34.85;101464.59;146620;632;46016;-72
2023/02/20 10:18:36;;;;;;;;;6.67;5.00;;;;;20.06;34.04;101474.66;146625;677;46013;-74
2023/02/20 10:22:01;;;;;;;;;5.00;3.67;;;;;20.93;32.09;101574.25;146618;586;47012;-73
2023/02/20 10:25:34;;;;;;;;;3.67;3.67;;;;;21.06;30.84;101585.03;146624;577;46010;-74
2023/02/20 10:29:04;;;;;;;;;6.00;4.00;;;;;20.31;34.63;101444.53;146618;566;46012;-73
2023/02/20 10:32:21;;;;;;;;;6.00;6.00;;;;;21.22;32.85;101600.34;146624;651;46020;-73
2023/02/20 10:35:28;;;;;;;;;7.00;6.00;;;;;20.50;33.93;101459.91;146619;569;46016;-73
2023/02/20 10:38:58;;;;;;;;;8.50;7.75;;;;;20.55;33.73;101481.13;146623;626;46020;-73
2023/02/20 10:42:38;;;;;;;;;7.00;7.00;;;;;20.43;34.28;101447.44;146615;570;46017;-72
2023/02/20 10:46:07;;;;;;;;;9.50;8.25;;;;;21.33;31.18;101608.47;146625;692;46020;-75
2023/02/20 10:49:10;;;;;;;;;7.00;7.00;;;;;21.26;34.04;101615.38;146623;589;46012;-73
2023/02/20 10:52:24;;;;;;;;;9.75;6.75;;;;;21.20;30.80;101613.50;146625;590;46010;-73
2023/02/20 10:55:35;;;;;;;;;8.75;6.50;;;;;21.19;33.13;101617.00;146618;569;46016;-74
2023/02/20 10:59:20;;;;;;;;;6.67;5.00;;;;;20.49;34.36;101491.47;146620;668;48010;-74
2023/02/20 11:02:37;;;;;;;;;5.50;5.50;;;;;21.29;32.51;101617.19;146618;690;46012;-77
2023/02/20 11:05:52;;;;;;;;;5.00;5.00;;;;;21.40;31.99;101627.16;146625;569;46020;-72
2023/02/20 11:08:52;;;;;;;;;8.00;6.00;;;;;21.52;31.13;101634.41;146622;629;46012;-74
2023/02/20 11:11:54;;;;;;;;;5.67;5.33;;;;;21.54;32.04;101629.19;146623;584;46010;-77
2023/02/20 11:14:57;;;;;;;;;6.67;5.00;;;;;21.42;30.43;101632.47;146620;640;46911;-73
2023/02/20 11:17:57;;;;;;;;;4.67;4.00;;;;;21.34;29.92;101618.16;146624;582;46010;-75
2023/02/20 11:20:51;;;;;;;;;5.33;5.33;;;;;21.25;29.77;101620.63;146621;573;46012;-72
2023/02/20 11:23:51;;;;;;;;;6.00;5.00;;;;;20.63;30.43;101515.56;146624;593;46020;-74
2023/02/20 11:26:49;;;;;;;;;4.33;4.00;;;;;21.40;30.42;101620.97;146616;602;46016;-73
2023/02/20 11:30:06;;;;;;;;;4.25;3.50;;;;;21.50;30.09;101628.25;146623;709;46010;-75
2023/02/20 11:33:44;;;;;;;;;2.00;2.00;;;;;20.74;30.03;101475.38;146621;651;46013;-72
2023/02/20 11:37:11;;;;;;;;;1.00;0.33;;;;;20.50;31.72;101436.22;146624;634;47010;-74
2023/02/20 11:40:49;;;;;;;;;1.00;1.00;;;;;20.81;30.39;101483.44;146618;597;46017;-73
2023/02/20 11:43:48;;;;;;;;;2.67;1.00;;;;;21.50;30.14;101611.53;146621;604;46020;-76
2023/02/20 11:46:53;;;;;;;;;1.33;0.67;;;;;21.52;28.88;101592.19;146621;617;46012;-73
2023/02/20 11:50:26;;;;;;;;;1.33;1.33;;;;;21.00;32.33;101493.53;146624;575;46012;-75
2023/02/20 11:53:45;;;;;;;;;;;;;;;;;;;;;
2023/02/20 11:57:25;;;;;;;;;1.00;1.00;;;;;21.82;29.86;101589.28;146627;570;46010;-74
2023/02/20 12:01:09;;;;;;;;;0.33;0.00;;;;;21.62;30.64;101548.41;146620;614;46012;-74
2023/02/20 12:04:25;;;;;;;;;2.00;1.00;;;;;21.28;30.60;101444.84;146620;576;46021;-74
2023/02/20 12:07:42;;;;;;;;;1.00;1.00;;;;;22.07;30.38;101564.22;146619;600;46016;-73
2023/02/20 12:10:46;;;;;;;;;1.00;1.00;;;;;22.27;30.73;101561.91;146623;564;46021;-73
2023/02/20 12:14:01;;;;;;;;;0.00;0.00;;;;;22.43;28.80;101565.72;146622;597;47012;-72
2023/02/20 12:17:51;;;;;;;;;1.00;1.00;;;;;22.56;30.00;101572.97;146621;625;46011;-75
2023/02/20 12:21:43;;;;;;;;;1.33;1.00;;;;;21.60;30.52;101384.75;146621;634;46012;-73
2023/02/20 12:25:22;;;;;;;;;1.00;1.00;;;;;22.59;26.69;101543.06;146621;593;46021;-73
2023/02/20 12:28:56;;;;;;;;;2.00;2.00;;;;;22.41;26.68;101548.06;146619;608;46012;-74
2023/02/20 12:32:30;;;;;;;;;1.00;1.00;;;;;22.17;27.60;101533.59;146625;579;46011;-76
2023/02/20 12:36:17;;;;;;;;;1.33;0.00;;;;;21.37;30.42;101437.16;146618;608;46016;-74
2023/02/20 12:39:55;;;;;;;;;5.33;4.33;;;;;22.05;28.45;101538.63;146622;564;46020;-73
2023/02/20 12:43:37;;;;;;;;;5.00;5.00;;;;;22.03;29.85;101541.25;146622;592;46014;-72
2023/02/20 12:46:57;;;;;;;;;4.33;4.33;;;;;22.11;29.48;101542.25;146623;592;46020;-75
2023/02/20 12:50:38;;;;;;;;;3.00;2.33;;;;;22.13;28.18;101537.91;146619;594;46016;-74
2023/02/20 12:54:09;;;;;;;;;1.00;1.00;;;;;22.09;29.10;101535.19;146622;589;46021;-73
2023/02/20 12:58:08;;;;;;;;;2.67;2.67;;;;;21.29;32.62;101417.59;146621;589;47012;-73
2023/02/20 13:01:09;;;;;;;;;2.00;2.00;;;;;21.97;27.95;101543.78;146622;576;46020;-71
2023/02/20 13:04:29;;;;;;;;;2.00;2.00;;;;;20.62;30.57;101300.31;146618;671;46016;-73
2023/02/20 13:08:19;;;;;;;;;2.50;2.50;;;;;21.91;28.82;101554.25;146624;605;46010;-74
2023/02/20 13:11:55;;;;;;;;;2.00;2.00;;;;;20.91;29.36;101387.88;146618;573;46016;-73
2023/02/20 13:15:27;;;;;;;;;5.00;3.67;;;;;21.86;31.18;101558.53;146623;600;46020;-73
2023/02/20 13:18:40;;;;;;;;;8.00;7.00;;;;;21.86;30.84;101561.19;146619;609;46017;-73
2023/02/20 13:21:41;;;;;;;;;4.00;4.00;;;;;21.88;28.96;101552.44;146622;595;47010;-74
2023/02/20 13:24:45;;;;;;;;;3.67;3.67;;;;;21.92;29.03;101556.00;146619;613;46017;-72
2023/02/20 13:28:09;;;;;;;;;4.33;3.67;;;;;21.91;31.24;101559.53;146619;573;46020;-73
2023/02/20 13:31:45;;;;;;;;;4.33;3.67;;;;;21.88;31.82;101556.81;146618;599;45017;-73
2023/02/20 13:34:48;;;;;;;;;3.33;3.33;;;;;21.87;30.07;101555.06;146624;591;46010;-72
2023/02/20 13:37:58;;;;;;;;;6.00;5.00;;;;;21.88;31.32;101549.78;146620;592;46016;-72
2023/02/20 13:41:28;;;;;;;;;3.00;3.00;;;;;21.15;30.44;101438.47;146623;599;46021;-73
2023/02/20 13:44:56;;;;;;;;;5.00;4.00;;;;;21.04;28.41;101413.63;146618;609;46012;-72
2023/02/20 13:48:55;;;;;;;;;5.33;5.33;;;;;21.81;31.65;101554.94;146622;566;46021;-72
2023/02/20 13:52:02;;;;;;;;;6.50;6.50;;;;;21.88;29.21;101562.09;146618;690;46016;-73
2023/02/20 13:55:32;;;;;;;;;6.50;6.00;;;;;21.88;30.46;101555.06;146625;597;45021;-73
2023/02/20 13:58:30;;;;;;;;;6.50;6.00;;;;;21.87;30.36;101547.12;146617;624;47012;-72
2023/02/20 14:01:57;;;;;;;;;5.00;5.00;;;;;21.24;31.10;101437.72;146623;571;45021;-72
2023/02/20 14:05:23;;;;;;;;;6.33;6.00;;;;;21.76;31.14;101549.56;146619;635;46016;-72
2023/02/20 14:08:26;;;;;;;;;8.00;7.50;;;;;21.67;29.64;101555.56;146621;574;47010;-73
2023/02/20 14:11:51;;;;;;;;;8.25;7.75;;;;;20.85;31.08;101456.31;146616;631;46012;-73
2023/02/20 14:15:11;;;;;;;;;8.25;6.75;;;;;21.31;30.57;101560.06;146623;669;46010;-73
2023/02/20 14:18:29;;;;;;;;;12.00;10.00;;;;;21.11;30.40;101564.94;146617;636;46016;-73
2023/02/20 14:21:32;;;;;;;;;10.00;7.75;;;;;20.99;28.90;101558.53;146620;569;46020;-75
2023/02/20 14:24:32;;;;;;;;;8.00;8.00;;;;;20.81;30.13;101557.22;146619;585;46017;-74
2023/02/20 14:27:44;;;;;;;;;7.50;6.25;;;;;20.65;29.86;101553.34;146620;618;46020;-75
2023/02/20 14:30:53;;;;;;;;;16.50;13.25;;;;;20.52;30.15;101555.69;146618;637;46013;-73
2023/02/20 14:33:51;;;;;;;;;10.75;10.25;;;;;20.41;28.85;101554.53;146621;661;46010;-72
2023/02/20 14:37:45;;;;;;;;;7.00;6.25;;;;;20.32;31.85;101556.06;146620;637;46013;-74
2023/02/20 14:41:19;;;;;;;;;10.00;8.75;;;;;19.49;31.97;101417.94;146623;603;46010;-72
2023/02/20 14:44:23;;;;;;;;;8.50;7.00;;;;;20.20;30.09;101552.25;146619;578;46012;-73
2023/02/20 14:47:22;;;;;;;;;8.50;8.50;;;;;20.16;30.31;101555.69;146621;570;46021;-72
2023/02/20 14:50:37;;;;;;;;;10.00;7.50;;;;;20.13;30.92;101560.88;146616;576;46016;-75
2023/02/20 14:53:41;;;;;;;;;9.00;7.75;;;;;20.04;29.28;101545.72;146622;619;46011;-74
2023/02/20 14:56:37;;;;;;;;;8.00;8.00;;;;;19.94;29.80;101551.59;146618;680;46016;-73
2023/02/20 15:00:14;;;;;;;;;7.25;7.25;;;;;18.52;32.98;101308.41;146623;564;46010;-73
2023/02/20 15:03:36;;;;;;;;;7.25;7.25;;;;;19.83;30.15;101547.78;146618;563;46016;-74
2023/02/20 15:06:37;;;;;;;;;5.75;5.00;;;;;19.76;30.78;101545.84;146621;623;46010;-73
2023/02/20 15:09:52;;;;;;;;;5.00;5.00;;;;;19.65;32.02;101540.28;146617;582;46914;-72
2023/02/20 15:12:48;;;;;;;;;7.25;7.25;;;;;19.56;29.54;101535.66;146625;580;46010;-74
2023/02/20 15:16:02;;;;;;;;;7.50;6.00;;;;;19.48;31.40;101544.19;146618;606;46012;-73
2023/02/20 15:18:56;;;;;;;;;5.25;5.25;;;;;19.39;30.06;101545.69;146622;657;46020;-73
2023/02/20 15:22:01;;;;;;;;;8.00;7.00;;;;;19.33;32.37;101548.16;146617;672;47012;-73
2023/02/20 15:25:15;;;;;;;;;7.25;5.75;;;;;19.28;31.41;101541.87;146621;655;46020;-73
2023/02/20 15:28:40;;;;;;;;;4.75;4.75;;;;;19.25;31.18;101544.41;146619;665;46012;-73